sensor_id;sensor_type;location;lat;lon;timestamp;temperature;humidity
516;DHT22;244;48.508;9.052;2023-11-19T00:00:30;9.70;29.30
516;DHT22;244;48.508;9.052;2023-11-19T00:02:57;9.70;29.30
516;DHT22;244;48.508;9.052;2023-11-19T00:05:24;9.80;29.40
516;DHT22;244;48.508;9.052;2023-11-19T00:07:53;9.80;29.40
516;DHT22;244;48.508;9.052;2023-11-19T00:10:20;9.80;29.50
516;DHT22;244;48.508;9.052;2023-11-19T00:12:48;9.80;29.50
516;DHT22;244;48.508;9.052;2023-11-19T00:15:15;9.80;29.60
516;DHT22;244;48.508;9.052;2023-11-19T00:17:46;9.90;29.70
516;DHT22;244;48.508;9.052;2023-11-19T00:20:14;9.90;29.60
516;DHT22;244;48.508;9.052;2023-11-19T00:22:41;9.90;29.60
516;DHT22;244;48.508;9.052;2023-11-19T00:25:08;9.90;29.70
516;DHT22;244;48.508;9.052;2023-11-19T00:27:35;9.90;29.70
516;DHT22;244;48.508;9.052;2023-11-19T00:30:03;9.90;29.80
516;DHT22;244;48.508;9.052;2023-11-19T00:32:31;9.90;29.80
516;DHT22;244;48.508;9.052;2023-11-19T00:34:59;9.90;29.90
516;DHT22;244;48.508;9.052;2023-11-19T00:37:26;9.90;30.60
516;DHT22;244;48.508;9.052;2023-11-19T00:39:53;9.90;30.00
516;DHT22;244;48.508;9.052;2023-11-19T00:42:21;9.90;30.10
516;DHT22;244;48.508;9.052;2023-11-19T00:44:49;9.90;31.00
516;DHT22;244;48.508;9.052;2023-11-19T00:47:16;10.00;29.50
516;DHT22;244;48.508;9.052;2023-11-19T00:49:45;10.00;29.60
516;DHT22;244;48.508;9.052;2023-11-19T00:52:15;10.00;29.60
516;DHT22;244;48.508;9.052;2023-11-19T00:54:42;10.00;29.60
516;DHT22;244;48.508;9.052;2023-11-19T00:57:09;10.00;29.60
516;DHT22;244;48.508;9.052;2023-11-19T00:59:36;10.00;29.70
516;DHT22;244;48.508;9.052;2023-11-19T01:02:03;10.10;29.80
516;DHT22;244;48.508;9.052;2023-11-19T01:04:33;10.10;29.80
516;DHT22;244;48.508;9.052;2023-11-19T01:07:01;10.10;29.90
516;DHT22;244;48.508;9.052;2023-11-19T01:09:32;10.10;29.90
516;DHT22;244;48.508;9.052;2023-11-19T01:12:01;10.10;29.80
516;DHT22;244;48.508;9.052;2023-11-19T01:14:28;10.20;30.00
516;DHT22;244;48.508;9.052;2023-11-19T01:16:55;10.20;30.00
516;DHT22;244;48.508;9.052;2023-11-19T01:19:23;10.20;30.00
516;DHT22;244;48.508;9.052;2023-11-19T01:21:51;10.20;30.00
516;DHT22;244;48.508;9.052;2023-11-19T01:24:18;10.20;30.00
516;DHT22;244;48.508;9.052;2023-11-19T01:26:46;10.20;30.00
516;DHT22;244;48.508;9.052;2023-11-19T01:29:15;10.30;30.10
516;DHT22;244;48.508;9.052;2023-11-19T01:31:42;10.30;30.00
516;DHT22;244;48.508;9.052;2023-11-19T01:34:09;10.30;30.00
516;DHT22;244;48.508;9.052;2023-11-19T01:36:37;10.30;30.00
516;DHT22;244;48.508;9.052;2023-11-19T01:39:04;10.30;30.10
516;DHT22;244;48.508;9.052;2023-11-19T01:41:34;10.30;30.20
516;DHT22;244;48.508;9.052;2023-11-19T01:44:04;10.30;30.30
516;DHT22;244;48.508;9.052;2023-11-19T01:46:32;10.30;30.40
516;DHT22;244;48.508;9.052;2023-11-19T01:49:00;10.30;30.40
516;DHT22;244;48.508;9.052;2023-11-19T01:51:28;10.30;30.50
516;DHT22;244;48.508;9.052;2023-11-19T01:53:55;10.30;30.60
516;DHT22;244;48.508;9.052;2023-11-19T01:56:24;10.30;30.70
516;DHT22;244;48.508;9.052;2023-11-19T01:58:53;10.40;30.80
516;DHT22;244;48.508;9.052;2023-11-19T02:01:22;10.40;31.50
516;DHT22;244;48.508;9.052;2023-11-19T02:03:49;10.40;30.80
516;DHT22;244;48.508;9.052;2023-11-19T02:06:16;10.40;31.60
516;DHT22;244;48.508;9.052;2023-11-19T02:08:43;10.40;31.00
516;DHT22;244;48.508;9.052;2023-11-19T02:11:10;10.40;31.00
516;DHT22;244;48.508;9.052;2023-11-19T02:13:37;10.50;31.10
516;DHT22;244;48.508;9.052;2023-11-19T02:16:07;10.50;31.10
516;DHT22;244;48.508;9.052;2023-11-19T02:18:36;10.50;31.10
516;DHT22;244;48.508;9.052;2023-11-19T02:21:04;10.50;31.10
516;DHT22;244;48.508;9.052;2023-11-19T02:23:32;10.60;31.20
516;DHT22;244;48.508;9.052;2023-11-19T02:26:02;10.60;31.30
516;DHT22;244;48.508;9.052;2023-11-19T02:28:32;10.60;31.40
516;DHT22;244;48.508;9.052;2023-11-19T02:30:59;10.60;31.50
516;DHT22;244;48.508;9.052;2023-11-19T02:33:26;10.60;31.40
516;DHT22;244;48.508;9.052;2023-11-19T02:35:53;10.60;32.20
516;DHT22;244;48.508;9.052;2023-11-19T02:38:20;10.70;31.60
516;DHT22;244;48.508;9.052;2023-11-19T02:40:48;10.70;31.70
516;DHT22;244;48.508;9.052;2023-11-19T02:43:15;10.70;31.70
516;DHT22;244;48.508;9.052;2023-11-19T02:45:45;10.70;31.70
516;DHT22;244;48.508;9.052;2023-11-19T02:48:12;10.70;31.60
516;DHT22;244;48.508;9.052;2023-11-19T02:50:40;10.70;31.60
516;DHT22;244;48.508;9.052;2023-11-19T02:53:06;10.80;31.70
516;DHT22;244;48.508;9.052;2023-11-19T02:55:34;10.80;31.80
516;DHT22;244;48.508;9.052;2023-11-19T02:58:03;10.80;31.90
516;DHT22;244;48.508;9.052;2023-11-19T03:00:35;10.80;32.00
516;DHT22;244;48.508;9.052;2023-11-19T03:03:09;10.80;32.00
516;DHT22;244;48.508;9.052;2023-11-19T03:05:45;10.80;32.00
516;DHT22;244;48.508;9.052;2023-11-19T03:08:14;10.80;32.10
516;DHT22;244;48.508;9.052;2023-11-19T03:10:42;10.90;32.20
516;DHT22;244;48.508;9.052;2023-11-19T03:13:12;10.90;32.20
516;DHT22;244;48.508;9.052;2023-11-19T03:15:40;10.90;32.10
516;DHT22;244;48.508;9.052;2023-11-19T03:18:09;10.90;32.20
516;DHT22;244;48.508;9.052;2023-11-19T03:20:36;10.90;32.30
516;DHT22;244;48.508;9.052;2023-11-19T03:23:03;10.90;33.00
516;DHT22;244;48.508;9.052;2023-11-19T03:25:30;10.90;32.30
516;DHT22;244;48.508;9.052;2023-11-19T03:28:00;10.90;32.30
516;DHT22;244;48.508;9.052;2023-11-19T03:30:27;11.00;32.40
516;DHT22;244;48.508;9.052;2023-11-19T03:32:55;11.00;32.30
516;DHT22;244;48.508;9.052;2023-11-19T03:35:24;11.00;33.10
516;DHT22;244;48.508;9.052;2023-11-19T03:37:51;11.00;32.30
516;DHT22;244;48.508;9.052;2023-11-19T03:40:18;11.00;32.20
516;DHT22;244;48.508;9.052;2023-11-19T03:42:45;11.00;32.20
516;DHT22;244;48.508;9.052;2023-11-19T03:45:12;11.10;32.30
516;DHT22;244;48.508;9.052;2023-11-19T03:47:40;11.10;32.30
516;DHT22;244;48.508;9.052;2023-11-19T03:50:07;11.10;32.40
516;DHT22;244;48.508;9.052;2023-11-19T03:52:36;11.10;32.50
516;DHT22;244;48.508;9.052;2023-11-19T03:55:04;11.10;32.50
516;DHT22;244;48.508;9.052;2023-11-19T03:57:31;11.10;32.60
516;DHT22;244;48.508;9.052;2023-11-19T03:59:58;11.10;32.60
516;DHT22;244;48.508;9.052;2023-11-19T04:02:25;11.10;32.60
516;DHT22;244;48.508;9.052;2023-11-19T04:04:54;11.20;32.80
516;DHT22;244;48.508;9.052;2023-11-19T04:07:21;11.20;32.80
516;DHT22;244;48.508;9.052;2023-11-19T04:09:50;11.20;32.80
516;DHT22;244;48.508;9.052;2023-11-19T04:12:17;11.20;33.00
516;DHT22;244;48.508;9.052;2023-11-19T04:14:44;11.20;33.90
516;DHT22;244;48.508;9.052;2023-11-19T04:17:11;11.30;33.20
516;DHT22;244;48.508;9.052;2023-11-19T04:19:38;11.30;33.10
516;DHT22;244;48.508;9.052;2023-11-19T04:22:07;11.30;33.20
516;DHT22;244;48.508;9.052;2023-11-19T04:24:34;11.30;33.20
516;DHT22;244;48.508;9.052;2023-11-19T04:27:02;11.30;33.30
516;DHT22;244;48.508;9.052;2023-11-19T04:29:32;11.30;33.40
516;DHT22;244;48.508;9.052;2023-11-19T04:32:00;11.30;33.40
516;DHT22;244;48.508;9.052;2023-11-19T04:34:26;11.30;33.40
516;DHT22;244;48.508;9.052;2023-11-19T04:36:53;11.40;34.20
516;DHT22;244;48.508;9.052;2023-11-19T04:39:20;11.40;33.50
516;DHT22;244;48.508;9.052;2023-11-19T04:41:48;11.40;33.60
516;DHT22;244;48.508;9.052;2023-11-19T04:44:17;11.40;33.60
516;DHT22;244;48.508;9.052;2023-11-19T04:46:44;11.40;33.60
516;DHT22;244;48.508;9.052;2023-11-19T04:49:11;11.40;33.50
516;DHT22;244;48.508;9.052;2023-11-19T04:51:39;11.50;33.70
516;DHT22;244;48.508;9.052;2023-11-19T04:54:07;11.50;34.50
516;DHT22;244;48.508;9.052;2023-11-19T04:56:34;11.50;33.70
516;DHT22;244;48.508;9.052;2023-11-19T04:59:02;11.50;33.70
516;DHT22;244;48.508;9.052;2023-11-19T05:01:30;11.60;33.80
516;DHT22;244;48.508;9.052;2023-11-19T05:03:57;11.60;33.80
516;DHT22;244;48.508;9.052;2023-11-19T05:06:26;11.60;33.80
516;DHT22;244;48.508;9.052;2023-11-19T05:08:55;11.60;33.80
516;DHT22;244;48.508;9.052;2023-11-19T05:11:22;11.60;33.80
516;DHT22;244;48.508;9.052;2023-11-19T05:13:49;11.70;33.90
516;DHT22;244;48.508;9.052;2023-11-19T05:16:16;11.70;33.90
516;DHT22;244;48.508;9.052;2023-11-19T05:18:46;11.70;33.90
516;DHT22;244;48.508;9.052;2023-11-19T05:21:13;11.70;33.90
516;DHT22;244;48.508;9.052;2023-11-19T05:23:40;11.80;33.90
516;DHT22;244;48.508;9.052;2023-11-19T05:26:07;11.80;33.90
516;DHT22;244;48.508;9.052;2023-11-19T05:28:37;11.80;33.90
516;DHT22;244;48.508;9.052;2023-11-19T05:31:05;11.80;33.90
516;DHT22;244;48.508;9.052;2023-11-19T05:33:32;11.90;34.30
516;DHT22;244;48.508;9.052;2023-11-19T05:36:00;11.90;34.00
516;DHT22;244;48.508;9.052;2023-11-19T05:38:29;11.90;34.00
516;DHT22;244;48.508;9.052;2023-11-19T05:40:56;11.90;34.00
516;DHT22;244;48.508;9.052;2023-11-19T05:43:22;12.00;34.10
516;DHT22;244;48.508;9.052;2023-11-19T05:45:49;12.00;34.10
516;DHT22;244;48.508;9.052;2023-11-19T05:48:16;12.00;34.90
516;DHT22;244;48.508;9.052;2023-11-19T05:50:43;12.00;34.90
516;DHT22;244;48.508;9.052;2023-11-19T05:53:12;12.10;34.20
516;DHT22;244;48.508;9.052;2023-11-19T05:55:40;12.10;34.20
516;DHT22;244;48.508;9.052;2023-11-19T05:58:14;12.10;34.20
516;DHT22;244;48.508;9.052;2023-11-19T06:00:41;12.10;34.90
516;DHT22;244;48.508;9.052;2023-11-19T06:03:08;12.20;34.30
516;DHT22;244;48.508;9.052;2023-11-19T06:05:35;12.20;34.30
516;DHT22;244;48.508;9.052;2023-11-19T06:08:02;12.20;35.00
516;DHT22;244;48.508;9.052;2023-11-19T06:10:30;12.20;34.30
516;DHT22;244;48.508;9.052;2023-11-19T06:12:58;12.30;34.40
516;DHT22;244;48.508;9.052;2023-11-19T06:15:25;12.30;34.40
516;DHT22;244;48.508;9.052;2023-11-19T06:17:53;12.30;34.40
516;DHT22;244;48.508;9.052;2023-11-19T06:20:20;12.30;34.40
516;DHT22;244;48.508;9.052;2023-11-19T06:22:47;12.30;34.40
516;DHT22;244;48.508;9.052;2023-11-19T06:25:14;12.30;34.40
516;DHT22;244;48.508;9.052;2023-11-19T06:27:43;12.30;34.40
516;DHT22;244;48.508;9.052;2023-11-19T06:30:10;12.30;34.40
516;DHT22;244;48.508;9.052;2023-11-19T06:32:38;12.40;34.50
516;DHT22;244;48.508;9.052;2023-11-19T06:35:05;12.40;34.50
516;DHT22;244;48.508;9.052;2023-11-19T06:37:31;12.40;34.40
516;DHT22;244;48.508;9.052;2023-11-19T06:39:58;12.40;35.20
516;DHT22;244;48.508;9.052;2023-11-19T06:42:25;12.40;34.40
516;DHT22;244;48.508;9.052;2023-11-19T06:44:54;12.40;34.30
516;DHT22;244;48.508;9.052;2023-11-19T06:47:22;12.40;35.20
516;DHT22;244;48.508;9.052;2023-11-19T06:49:51;12.40;35.10
516;DHT22;244;48.508;9.052;2023-11-19T06:52:18;12.40;34.40
516;DHT22;244;48.508;9.052;2023-11-19T06:54:45;12.50;34.50
516;DHT22;244;48.508;9.052;2023-11-19T06:57:12;12.50;34.60
516;DHT22;244;48.508;9.052;2023-11-19T06:59:39;12.50;34.40
516;DHT22;244;48.508;9.052;2023-11-19T07:02:08;12.50;34.30
516;DHT22;244;48.508;9.052;2023-11-19T07:04:35;12.50;34.00
516;DHT22;244;48.508;9.052;2023-11-19T07:07:02;12.50;34.00
516;DHT22;244;48.508;9.052;2023-11-19T07:09:31;12.50;34.00
516;DHT22;244;48.508;9.052;2023-11-19T07:11:58;12.50;33.90
516;DHT22;244;48.508;9.052;2023-11-19T07:14:25;12.60;34.00
516;DHT22;244;48.508;9.052;2023-11-19T07:16:52;12.60;34.10
516;DHT22;244;48.508;9.052;2023-11-19T07:19:20;12.60;34.20
516;DHT22;244;48.508;9.052;2023-11-19T07:21:47;12.60;34.10
516;DHT22;244;48.508;9.052;2023-11-19T07:24:14;12.60;34.00
516;DHT22;244;48.508;9.052;2023-11-19T07:26:43;12.60;34.10
516;DHT22;244;48.508;9.052;2023-11-19T07:29:10;12.60;34.10
516;DHT22;244;48.508;9.052;2023-11-19T07:31:37;12.70;34.10
516;DHT22;244;48.508;9.052;2023-11-19T07:34:04;12.70;34.10
516;DHT22;244;48.508;9.052;2023-11-19T07:36:33;12.70;34.20
516;DHT22;244;48.508;9.052;2023-11-19T07:39:00;12.70;34.40
516;DHT22;244;48.508;9.052;2023-11-19T07:41:27;12.80;34.30
516;DHT22;244;48.508;9.052;2023-11-19T07:43:55;12.80;34.30
516;DHT22;244;48.508;9.052;2023-11-19T07:46:22;12.90;34.30
516;DHT22;244;48.508;9.052;2023-11-19T07:48:49;12.90;34.30
516;DHT22;244;48.508;9.052;2023-11-19T07:51:16;12.90;34.30
516;DHT22;244;48.508;9.052;2023-11-19T07:53:44;12.90;34.60
516;DHT22;244;48.508;9.052;2023-11-19T07:56:11;12.90;34.40
516;DHT22;244;48.508;9.052;2023-11-19T07:58:38;13.00;34.50
516;DHT22;244;48.508;9.052;2023-11-19T08:01:05;13.00;34.50
516;DHT22;244;48.508;9.052;2023-11-19T08:03:32;13.00;34.40
516;DHT22;244;48.508;9.052;2023-11-19T08:06:00;13.00;34.40
516;DHT22;244;48.508;9.052;2023-11-19T08:08:27;13.00;35.40
516;DHT22;244;48.508;9.052;2023-11-19T08:10:56;13.00;34.70
516;DHT22;244;48.508;9.052;2023-11-19T08:13:23;13.00;34.70
516;DHT22;244;48.508;9.052;2023-11-19T08:15:51;13.00;34.70
516;DHT22;244;48.508;9.052;2023-11-19T08:18:18;13.00;34.90
516;DHT22;244;48.508;9.052;2023-11-19T08:20:45;13.00;35.00
516;DHT22;244;48.508;9.052;2023-11-19T08:23:14;13.00;35.00
516;DHT22;244;48.508;9.052;2023-11-19T08:25:41;13.10;35.80
516;DHT22;244;48.508;9.052;2023-11-19T08:28:09;13.10;35.10
516;DHT22;244;48.508;9.052;2023-11-19T08:30:36;13.10;35.10
516;DHT22;244;48.508;9.052;2023-11-19T08:33:03;13.20;35.20
516;DHT22;244;48.508;9.052;2023-11-19T08:35:31;13.20;35.20
516;DHT22;244;48.508;9.052;2023-11-19T08:37:58;13.30;35.30
516;DHT22;244;48.508;9.052;2023-11-19T08:40:25;13.30;35.30
516;DHT22;244;48.508;9.052;2023-11-19T08:42:52;13.40;35.30
516;DHT22;244;48.508;9.052;2023-11-19T08:45:21;13.50;36.10
516;DHT22;244;48.508;9.052;2023-11-19T08:47:48;13.60;34.90
516;DHT22;244;48.508;9.052;2023-11-19T08:50:14;13.70;34.80
516;DHT22;244;48.508;9.052;2023-11-19T08:52:41;13.70;34.70
516;DHT22;244;48.508;9.052;2023-11-19T08:55:08;13.80;35.00
516;DHT22;244;48.508;9.052;2023-11-19T08:57:37;13.90;35.00
516;DHT22;244;48.508;9.052;2023-11-19T09:00:05;14.00;34.70
516;DHT22;244;48.508;9.052;2023-11-19T09:02:35;14.10;34.50
516;DHT22;244;48.508;9.052;2023-11-19T09:05:02;14.20;34.70
516;DHT22;244;48.508;9.052;2023-11-19T09:07:29;14.30;34.80
516;DHT22;244;48.508;9.052;2023-11-19T09:09:56;14.40;34.50
516;DHT22;244;48.508;9.052;2023-11-19T09:12:23;14.50;34.40
516;DHT22;244;48.508;9.052;2023-11-19T09:14:50;14.50;34.50
516;DHT22;244;48.508;9.052;2023-11-19T09:17:17;14.60;34.40
516;DHT22;244;48.508;9.052;2023-11-19T09:19:45;14.70;34.10
516;DHT22;244;48.508;9.052;2023-11-19T09:22:12;14.80;33.90
516;DHT22;244;48.508;9.052;2023-11-19T09:24:40;14.90;33.60
516;DHT22;244;48.508;9.052;2023-11-19T09:27:07;14.90;33.50
516;DHT22;244;48.508;9.052;2023-11-19T09:29:33;15.00;33.70
516;DHT22;244;48.508;9.052;2023-11-19T09:32:01;15.00;33.60
516;DHT22;244;48.508;9.052;2023-11-19T09:34:27;15.00;33.90
516;DHT22;244;48.508;9.052;2023-11-19T09:36:56;15.10;33.70
516;DHT22;244;48.508;9.052;2023-11-19T09:39:23;15.20;33.70
516;DHT22;244;48.508;9.052;2023-11-19T09:41:51;15.40;33.30
516;DHT22;244;48.508;9.052;2023-11-19T09:44:19;15.50;32.80
516;DHT22;244;48.508;9.052;2023-11-19T09:46:46;15.50;32.40
516;DHT22;244;48.508;9.052;2023-11-19T09:49:14;15.60;32.30
516;DHT22;244;48.508;9.052;2023-11-19T09:51:42;15.80;32.80
516;DHT22;244;48.508;9.052;2023-11-19T09:54:11;15.90;31.20
516;DHT22;244;48.508;9.052;2023-11-19T09:56:39;16.10;31.30
516;DHT22;244;48.508;9.052;2023-11-19T09:59:08;16.10;30.70
516;DHT22;244;48.508;9.052;2023-11-19T10:01:36;16.10;30.80
516;DHT22;244;48.508;9.052;2023-11-19T10:04:04;16.10;30.50
516;DHT22;244;48.508;9.052;2023-11-19T10:06:31;16.10;30.30
516;DHT22;244;48.508;9.052;2023-11-19T10:08:58;16.20;30.30
516;DHT22;244;48.508;9.052;2023-11-19T10:11:27;16.30;30.50
516;DHT22;244;48.508;9.052;2023-11-19T10:13:54;16.30;30.00
516;DHT22;244;48.508;9.052;2023-11-19T10:16:28;16.40;30.00
516;DHT22;244;48.508;9.052;2023-11-19T10:18:56;16.40;29.70
516;DHT22;244;48.508;9.052;2023-11-19T10:21:24;16.50;29.60
516;DHT22;244;48.508;9.052;2023-11-19T10:23:54;16.50;29.20
516;DHT22;244;48.508;9.052;2023-11-19T10:26:23;16.60;29.30
516;DHT22;244;48.508;9.052;2023-11-19T10:28:51;16.60;29.00
516;DHT22;244;48.508;9.052;2023-11-19T10:31:20;16.60;28.90
516;DHT22;244;48.508;9.052;2023-11-19T10:34:24;16.60;28.50
516;DHT22;244;48.508;9.052;2023-11-19T10:36:51;16.70;29.10
516;DHT22;244;48.508;9.052;2023-11-19T10:39:18;16.80;28.40
516;DHT22;244;48.508;9.052;2023-11-19T10:41:46;16.80;28.90
516;DHT22;244;48.508;9.052;2023-11-19T10:44:31;16.80;28.50
516;DHT22;244;48.508;9.052;2023-11-19T10:46:59;16.90;28.70
516;DHT22;244;48.508;9.052;2023-11-19T10:49:27;16.90;28.20
516;DHT22;244;48.508;9.052;2023-11-19T10:51:55;17.00;28.80
516;DHT22;244;48.508;9.052;2023-11-19T10:54:24;17.10;28.30
516;DHT22;244;48.508;9.052;2023-11-19T10:56:59;17.10;27.70
516;DHT22;244;48.508;9.052;2023-11-19T10:59:30;17.10;27.90
516;DHT22;244;48.508;9.052;2023-11-19T11:01:57;17.10;28.10
516;DHT22;244;48.508;9.052;2023-11-19T11:04:26;17.00;27.90
516;DHT22;244;48.508;9.052;2023-11-19T11:06:58;17.00;27.90
516;DHT22;244;48.508;9.052;2023-11-19T11:09:27;17.00;27.60
516;DHT22;244;48.508;9.052;2023-11-19T11:11:54;17.00;27.20
516;DHT22;244;48.508;9.052;2023-11-19T11:14:24;17.10;27.30
516;DHT22;244;48.508;9.052;2023-11-19T11:16:53;17.20;27.00
516;DHT22;244;48.508;9.052;2023-11-19T11:19:22;17.30;26.60
516;DHT22;244;48.508;9.052;2023-11-19T11:21:53;17.40;27.20
516;DHT22;244;48.508;9.052;2023-11-19T11:24:44;17.50;26.60
516;DHT22;244;48.508;9.052;2023-11-19T11:30:23;17.70;25.40
516;DHT22;244;48.508;9.052;2023-11-19T11:33:04;17.80;25.30
516;DHT22;244;48.508;9.052;2023-11-19T11:35:41;17.80;25.30
516;DHT22;244;48.508;9.052;2023-11-19T11:38:14;17.90;25.20
516;DHT22;244;48.508;9.052;2023-11-19T11:40:41;18.00;24.70
516;DHT22;244;48.508;9.052;2023-11-19T11:43:43;18.00;24.50
516;DHT22;244;48.508;9.052;2023-11-19T11:49:25;18.00;24.70
516;DHT22;244;48.508;9.052;2023-11-19T11:52:00;18.00;24.10
516;DHT22;244;48.508;9.052;2023-11-19T11:54:28;18.00;24.10
516;DHT22;244;48.508;9.052;2023-11-19T11:57:04;18.00;23.80
516;DHT22;244;48.508;9.052;2023-11-19T11:59:37;18.00;23.80
516;DHT22;244;48.508;9.052;2023-11-19T12:02:08;18.00;23.90
516;DHT22;244;48.508;9.052;2023-11-19T12:04:35;18.00;23.80
516;DHT22;244;48.508;9.052;2023-11-19T12:07:04;18.00;24.10
516;DHT22;244;48.508;9.052;2023-11-19T12:09:33;17.90;24.10
516;DHT22;244;48.508;9.052;2023-11-19T12:12:18;17.80;24.10
516;DHT22;244;48.508;9.052;2023-11-19T12:15:07;17.70;24.10
516;DHT22;244;48.508;9.052;2023-11-19T12:17:44;17.60;24.40
516;DHT22;244;48.508;9.052;2023-11-19T12:20:15;17.50;23.70
516;DHT22;244;48.508;9.052;2023-11-19T12:22:43;17.50;23.70
516;DHT22;244;48.508;9.052;2023-11-19T12:25:12;17.70;23.30
516;DHT22;244;48.508;9.052;2023-11-19T12:27:41;17.80;23.50
516;DHT22;244;48.508;9.052;2023-11-19T12:30:08;17.90;22.90
516;DHT22;244;48.508;9.052;2023-11-19T12:32:39;17.90;23.10
516;DHT22;244;48.508;9.052;2023-11-19T12:35:07;17.90;23.10
516;DHT22;244;48.508;9.052;2023-11-19T12:37:43;18.00;23.20
516;DHT22;244;48.508;9.052;2023-11-19T12:40:14;18.10;22.90
516;DHT22;244;48.508;9.052;2023-11-19T12:42:41;18.10;22.80
516;DHT22;244;48.508;9.052;2023-11-19T12:45:08;18.20;23.00
516;DHT22;244;48.508;9.052;2023-11-19T12:47:38;18.20;22.30
516;DHT22;244;48.508;9.052;2023-11-19T12:50:05;18.20;22.70
516;DHT22;244;48.508;9.052;2023-11-19T12:52:33;18.20;23.00
516;DHT22;244;48.508;9.052;2023-11-19T12:55:01;18.10;23.90
516;DHT22;244;48.508;9.052;2023-11-19T12:57:41;18.00;23.30
516;DHT22;244;48.508;9.052;2023-11-19T13:00:19;17.90;23.50
516;DHT22;244;48.508;9.052;2023-11-19T13:02:48;17.90;23.40
516;DHT22;244;48.508;9.052;2023-11-19T13:05:23;18.00;22.90
516;DHT22;244;48.508;9.052;2023-11-19T13:07:51;18.10;22.70
516;DHT22;244;48.508;9.052;2023-11-19T13:10:24;18.20;22.80
516;DHT22;244;48.508;9.052;2023-11-19T13:13:04;18.20;22.90
516;DHT22;244;48.508;9.052;2023-11-19T13:15:32;18.20;23.60
516;DHT22;244;48.508;9.052;2023-11-19T13:17:59;18.00;23.60
516;DHT22;244;48.508;9.052;2023-11-19T13:20:26;17.90;23.60
516;DHT22;244;48.508;9.052;2023-11-19T13:22:55;17.80;23.50
516;DHT22;244;48.508;9.052;2023-11-19T13:25:22;17.70;23.10
516;DHT22;244;48.508;9.052;2023-11-19T13:27:49;17.70;23.20
516;DHT22;244;48.508;9.052;2023-11-19T13:30:18;17.80;23.20
516;DHT22;244;48.508;9.052;2023-11-19T13:32:45;17.90;22.60
516;DHT22;244;48.508;9.052;2023-11-19T13:35:12;18.00;22.50
516;DHT22;244;48.508;9.052;2023-11-19T13:37:39;18.00;22.40
516;DHT22;244;48.508;9.052;2023-11-19T13:40:07;18.10;22.60
516;DHT22;244;48.508;9.052;2023-11-19T13:42:36;18.10;22.30
516;DHT22;244;48.508;9.052;2023-11-19T13:45:07;18.10;22.20
516;DHT22;244;48.508;9.052;2023-11-19T13:47:38;18.10;22.20
516;DHT22;244;48.508;9.052;2023-11-19T13:50:08;18.10;22.10
516;DHT22;244;48.508;9.052;2023-11-19T13:52:35;18.10;22.60
516;DHT22;244;48.508;9.052;2023-11-19T13:55:05;18.10;22.70
516;DHT22;244;48.508;9.052;2023-11-19T13:57:32;18.10;22.50
516;DHT22;244;48.508;9.052;2023-11-19T14:00:00;18.10;21.80
516;DHT22;244;48.508;9.052;2023-11-19T14:02:28;17.90;21.80
516;DHT22;244;48.508;9.052;2023-11-19T14:04:57;17.80;21.60
516;DHT22;244;48.508;9.052;2023-11-19T14:07:24;17.60;21.50
516;DHT22;244;48.508;9.052;2023-11-19T14:09:50;17.60;21.10
516;DHT22;244;48.508;9.052;2023-11-19T14:12:17;17.60;21.10
516;DHT22;244;48.508;9.052;2023-11-19T14:14:44;17.50;21.30
516;DHT22;244;48.508;9.052;2023-11-19T14:17:11;17.50;21.20
516;DHT22;244;48.508;9.052;2023-11-19T14:19:38;17.40;21.10
516;DHT22;244;48.508;9.052;2023-11-19T14:22:07;17.30;20.60
516;DHT22;244;48.508;9.052;2023-11-19T14:24:34;17.20;20.70
516;DHT22;244;48.508;9.052;2023-11-19T14:27:01;17.10;21.50
516;DHT22;244;48.508;9.052;2023-11-19T14:29:28;17.00;20.80
516;DHT22;244;48.508;9.052;2023-11-19T14:31:56;16.80;20.90
516;DHT22;244;48.508;9.052;2023-11-19T14:34:24;16.70;21.20
516;DHT22;244;48.508;9.052;2023-11-19T14:36:51;16.60;21.30
516;DHT22;244;48.508;9.052;2023-11-19T14:39:20;16.50;21.40
516;DHT22;244;48.508;9.052;2023-11-19T14:41:47;16.60;21.70
516;DHT22;244;48.508;9.052;2023-11-19T14:44:14;16.60;21.70
516;DHT22;244;48.508;9.052;2023-11-19T14:46:42;16.60;21.90
516;DHT22;244;48.508;9.052;2023-11-19T14:49:09;16.60;22.00
516;DHT22;244;48.508;9.052;2023-11-19T14:51:36;16.60;21.70
516;DHT22;244;48.508;9.052;2023-11-19T14:54:04;16.60;22.10
516;DHT22;244;48.508;9.052;2023-11-19T14:56:32;16.60;22.30
516;DHT22;244;48.508;9.052;2023-11-19T14:58:59;16.70;22.50
516;DHT22;244;48.508;9.052;2023-11-19T15:01:26;16.70;22.30
516;DHT22;244;48.508;9.052;2023-11-19T15:03:54;16.70;22.30
516;DHT22;244;48.508;9.052;2023-11-19T15:06:23;16.70;22.40
516;DHT22;244;48.508;9.052;2023-11-19T15:08:50;16.70;22.50
516;DHT22;244;48.508;9.052;2023-11-19T15:11:17;16.70;22.20
516;DHT22;244;48.508;9.052;2023-11-19T15:13:45;16.60;21.90
516;DHT22;244;48.508;9.052;2023-11-19T15:16:12;16.60;21.70
516;DHT22;244;48.508;9.052;2023-11-19T15:18:40;16.50;21.40
516;DHT22;244;48.508;9.052;2023-11-19T15:21:07;16.40;21.30
516;DHT22;244;48.508;9.052;2023-11-19T15:23:35;16.30;21.30
516;DHT22;244;48.508;9.052;2023-11-19T15:26:02;16.30;21.20
516;DHT22;244;48.508;9.052;2023-11-19T15:28:29;16.30;21.50
516;DHT22;244;48.508;9.052;2023-11-19T15:30:58;16.20;21.80
516;DHT22;244;48.508;9.052;2023-11-19T15:33:25;16.10;21.90
516;DHT22;244;48.508;9.052;2023-11-19T15:35:52;16.10;21.90
516;DHT22;244;48.508;9.052;2023-11-19T15:38:18;16.00;21.90
516;DHT22;244;48.508;9.052;2023-11-19T15:40:45;15.90;22.00
516;DHT22;244;48.508;9.052;2023-11-19T15:43:12;15.90;22.80
516;DHT22;244;48.508;9.052;2023-11-19T15:45:39;15.80;22.20
516;DHT22;244;48.508;9.052;2023-11-19T15:48:08;15.70;22.40
516;DHT22;244;48.508;9.052;2023-11-19T15:50:39;15.60;22.40
516;DHT22;244;48.508;9.052;2023-11-19T15:53:06;15.50;22.40
516;DHT22;244;48.508;9.052;2023-11-19T15:55:34;15.40;22.60
516;DHT22;244;48.508;9.052;2023-11-19T15:58:01;15.40;22.90
516;DHT22;244;48.508;9.052;2023-11-19T16:00:28;15.30;22.80
516;DHT22;244;48.508;9.052;2023-11-19T16:02:55;15.30;22.90
516;DHT22;244;48.508;9.052;2023-11-19T16:05:23;15.20;23.10
516;DHT22;244;48.508;9.052;2023-11-19T16:07:50;15.20;23.30
516;DHT22;244;48.508;9.052;2023-11-19T16:10:17;15.10;23.30
516;DHT22;244;48.508;9.052;2023-11-19T16:12:45;15.10;23.50
516;DHT22;244;48.508;9.052;2023-11-19T16:15:13;15.10;23.40
516;DHT22;244;48.508;9.052;2023-11-19T16:17:40;15.10;23.60
516;DHT22;244;48.508;9.052;2023-11-19T16:20:08;15.00;23.60
516;DHT22;244;48.508;9.052;2023-11-19T16:22:37;15.00;23.70
516;DHT22;244;48.508;9.052;2023-11-19T16:25:05;14.90;23.80
516;DHT22;244;48.508;9.052;2023-11-19T16:27:32;14.90;23.70
516;DHT22;244;48.508;9.052;2023-11-19T16:29:59;14.80;23.70
516;DHT22;244;48.508;9.052;2023-11-19T16:32:27;14.70;23.70
516;DHT22;244;48.508;9.052;2023-11-19T16:34:54;14.70;24.50
516;DHT22;244;48.508;9.052;2023-11-19T16:37:21;14.60;23.90
516;DHT22;244;48.508;9.052;2023-11-19T16:39:49;14.50;23.90
516;DHT22;244;48.508;9.052;2023-11-19T16:42:16;14.40;23.90
516;DHT22;244;48.508;9.052;2023-11-19T16:44:46;14.30;23.90
516;DHT22;244;48.508;9.052;2023-11-19T16:47:13;14.20;23.90